Time;durP1;ratioP1;P1;durP2;ratioP2;P2;SDS_P1;SDS_P2;PMS_P1;PMS_P2;Temp;Humidity;BMP_temperature;BMP_pressure;BME280_temperature;BME280_humidity;BME280_pressure;Samples;Min_cycle;Max_cycle;Signal;HPM_P1;HPM_P2
2023/07/18 00:01:07;;;;;;;10.03;4.27;;;;;;;;;;4969024;28;20766;-66
2023/07/18 00:03:34;;;;;;;7.43;4.30;;;;;;;;;;4968897;28;20255;-66
2023/07/18 00:06:01;;;;;;;11.53;4.10;;;;;;;;;;4968955;28;20197;-66
2023/07/18 00:08:27;;;;;;;8.00;4.17;;;;;;;;;;4969206;28;20249;-66
2023/07/18 00:11:11;;;;;;;6.50;4.37;;;;;;;;;;4954501;28;20191;-66
2023/07/18 00:13:38;;;;;;;7.97;4.27;;;;;;;;;;4969090;28;20965;-66
2023/07/18 00:16:23;;;;;;;7.00;4.57;;;;;;;;;;4967420;28;20181;-66
2023/07/18 00:18:50;;;;;;;8.90;4.20;;;;;;;;;;4969479;28;20221;-66
2023/07/18 00:21:17;;;;;;;7.77;4.57;;;;;;;;;;4969143;28;20220;-67
2023/07/18 00:23:44;;;;;;;7.40;4.13;;;;;;;;;;4968484;28;20676;-66
2023/07/18 00:26:11;;;;;;;6.00;4.00;;;;;;;;;;4969137;28;20201;-67
2023/07/18 00:28:55;;;;;;;6.63;4.17;;;;;;;;;;4968997;28;20180;-66
2023/07/18 00:31:21;;;;;;;6.90;4.53;;;;;;;;;;4968986;28;20313;-67
2023/07/18 00:33:48;;;;;;;7.53;3.90;;;;;;;;;;4969251;28;20178;-66
2023/07/18 00:36:15;;;;;;;6.13;4.43;;;;;;;;;;4968991;28;20202;-66
2023/07/18 00:38:43;;;;;;;7.00;4.13;;;;;;;;;;4950972;28;20201;-67
2023/07/18 00:41:11;;;;;;;7.83;4.33;;;;;;;;;;4968695;28;20320;-66
2023/07/18 00:43:39;;;;;;;7.83;4.37;;;;;;;;;;4952099;28;20193;-66
2023/07/18 00:46:05;;;;;;;6.10;4.50;;;;;;;;;;4972581;28;20217;-66
2023/07/18 00:48:49;;;;;;;6.73;4.50;;;;;;;;;;4972665;28;20205;-67
2023/07/18 00:51:16;;;;;;;9.77;4.73;;;;;;;;;;4954748;28;20624;-66
2023/07/18 01:28:30;;;;;;;7.90;3.90;;;;;;;;;;4954103;28;20180;-65
2023/07/18 01:30:56;;;;;;;7.53;3.87;;;;;;;;;;4954731;28;20272;-65
2023/07/18 01:33:27;;;;;;;9.80;4.27;;;;;;;;;;4971118;28;20193;-65
2023/07/18 01:35:53;;;;;;;6.77;2.27;;;;;;;;;;4971520;28;20224;-65
2023/07/18 01:38:20;;;;;;;5.70;3.03;;;;;;;;;;4953909;28;20201;-65
2023/07/18 01:40:47;;;;;;;6.83;3.10;;;;;;;;;;4970784;28;20256;-65
2023/07/18 01:43:16;;;;;;;5.07;2.63;;;;;;;;;;4971588;28;20186;-64
2023/07/18 01:45:43;;;;;;;5.50;2.47;;;;;;;;;;4970794;28;20760;-65
2023/07/18 01:48:10;;;;;;;6.77;2.80;;;;;;;;;;4971268;28;20600;-65
2023/07/18 01:50:38;;;;;;;5.53;2.10;;;;;;;;;;4953762;28;20665;-65
2023/07/18 01:53:23;;;;;;;4.60;1.77;;;;;;;;;;4970929;28;20228;-65
2023/07/18 01:55:49;;;;;;;3.83;1.40;;;;;;;;;;4970765;28;20200;-65
2023/07/18 01:58:33;;;;;;;2.53;1.40;;;;;;;;;;4953611;28;20186;-65
2023/07/18 02:01:03;;;;;;;1.97;1.40;;;;;;;;;;4953744;28;20712;-66
2023/07/18 02:03:48;;;;;;;1.67;1.17;;;;;;;;;;4954006;28;20182;-65
2023/07/18 02:06:15;;;;;;;2.30;1.10;;;;;;;;;;4970948;28;20724;-65
2023/07/18 02:08:59;;;;;;;2.43;1.20;;;;;;;;;;4968466;28;20330;-65
2023/07/18 02:11:25;;;;;;;7.40;1.67;;;;;;;;;;4951655;28;20284;-65
2023/07/18 02:13:52;;;;;;;3.23;1.40;;;;;;;;;;4970813;28;20189;-65
2023/07/18 02:16:19;;;;;;;4.10;1.40;;;;;;;;;;4970964;28;20221;-65
2023/07/18 02:18:45;;;;;;;2.17;1.50;;;;;;;;;;4970475;28;20205;-65
2023/07/18 02:21:12;;;;;;;2.10;1.50;;;;;;;;;;4970494;28;20216;-64
2023/07/18 02:23:39;;;;;;;1.80;1.00;;;;;;;;;;4970533;28;20193;-64
2023/07/18 02:26:07;;;;;;;4.13;1.30;;;;;;;;;;4952578;28;20205;-65
2023/07/18 02:28:33;;;;;;;1.37;1.10;;;;;;;;;;4970489;28;20264;-65
2023/07/18 02:31:00;;;;;;;2.33;1.40;;;;;;;;;;4970346;28;20181;-65
2023/07/18 02:33:27;;;;;;;2.00;1.60;;;;;;;;;;4970219;28;20193;-65
2023/07/18 02:35:54;;;;;;;3.97;1.30;;;;;;;;;;4952904;28;20597;-65
2023/07/18 02:38:20;;;;;;;3.53;1.60;;;;;;;;;;4970217;28;20280;-64
2023/07/18 02:40:47;;;;;;;2.93;1.47;;;;;;;;;;4969582;28;20674;-65
2023/07/18 02:43:31;;;;;;;4.40;1.47;;;;;;;;;;4952833;28;20181;-64
2023/07/18 02:45:59;;;;;;;3.40;1.40;;;;;;;;;;4952937;28;20193;-65
2023/07/18 02:48:27;;;;;;;3.83;1.87;;;;;;;;;;4970164;28;20671;-64
2023/07/18 02:50:54;;;;;;;3.70;1.40;;;;;;;;;;4969911;28;20178;-65
2023/07/18 02:53:21;;;;;;;4.47;1.60;;;;;;;;;;4952573;28;20205;-64
2023/07/18 02:55:49;;;;;;;3.90;1.80;;;;;;;;;;4952474;28;20197;-64
2023/07/18 02:58:16;;;;;;;3.63;1.57;;;;;;;;;;4952764;28;20194;-64
2023/07/18 03:00:42;;;;;;;3.93;1.60;;;;;;;;;;4969425;28;20213;-64
2023/07/18 03:03:27;;;;;;;4.50;1.43;;;;;;;;;;4969687;28;20173;-65
2023/07/18 03:05:54;;;;;;;6.20;1.80;;;;;;;;;;4952266;28;20197;-64
2023/07/18 03:08:20;;;;;;;2.43;1.37;;;;;;;;;;4951761;28;20256;-64
2023/07/18 03:10:47;;;;;;;2.40;1.27;;;;;;;;;;4969589;28;20221;-64
2023/07/18 03:13:14;;;;;;;3.53;1.27;;;;;;;;;;4969893;28;20201;-64
2023/07/18 03:15:59;;;;;;;4.13;1.60;;;;;;;;;;4968959;28;20235;-65
2023/07/18 03:18:26;;;;;;;3.10;1.40;;;;;;;;;;4969350;28;20215;-64
2023/07/18 03:21:11;;;;;;;4.03;1.60;;;;;;;;;;4969458;28;20750;-64
2023/07/18 03:23:38;;;;;;;3.90;1.80;;;;;;;;;;4952442;28;20300;-64
2023/07/18 03:26:05;;;;;;;2.77;1.37;;;;;;;;;;4951687;28;20223;-64
2023/07/18 03:28:31;;;;;;;3.77;1.60;;;;;;;;;;4969574;28;20193;-65
2023/07/18 03:30:58;;;;;;;3.87;1.77;;;;;;;;;;4968622;28;20228;-64
2023/07/18 03:33:25;;;;;;;3.47;1.60;;;;;;;;;;4969394;28;20612;-64
2023/07/18 03:35:53;;;;;;;4.17;1.43;;;;;;;;;;4952024;28;20348;-64
2023/07/18 03:38:20;;;;;;;4.07;1.70;;;;;;;;;;4969290;28;20211;-64
2023/07/18 03:40:47;;;;;;;4.37;1.57;;;;;;;;;;4968865;28;20660;-65
2023/07/18 03:43:13;;;;;;;2.83;1.50;;;;;;;;;;4968984;28;20196;-65
2023/07/18 03:45:40;;;;;;;4.40;1.53;;;;;;;;;;4968587;28;20260;-65
2023/07/18 03:48:07;;;;;;;4.60;1.73;;;;;;;;;;4968902;28;20676;-65
2023/07/18 03:50:34;;;;;;;4.83;2.10;;;;;;;;;;4968972;28;20209;-65
2023/07/18 03:53:00;;;;;;;3.83;1.80;;;;;;;;;;4968766;28;20600;-65
2023/07/18 03:55:27;;;;;;;3.73;1.90;;;;;;;;;;4968568;28;20280;-65
2023/07/18 03:57:54;;;;;;;5.00;1.80;;;;;;;;;;4951311;28;20215;-65
2023/07/18 04:00:20;;;;;;;6.37;2.17;;;;;;;;;;4968706;28;20232;-65
2023/07/18 04:02:48;;;;;;;3.20;1.83;;;;;;;;;;4968503;28;20200;-65
2023/07/18 04:05:15;;;;;;;4.83;2.03;;;;;;;;;;4963182;28;20198;-66
2023/07/18 04:07:43;;;;;;;4.33;1.90;;;;;;;;;;4945590;28;20229;-65
2023/07/18 04:10:11;;;;;;;5.67;1.83;;;;;;;;;;4949416;28;20201;-66
2023/07/18 04:12:40;;;;;;;2.63;1.53;;;;;;;;;;4942033;28;20823;-66
2023/07/18 04:15:07;;;;;;;5.30;1.77;;;;;;;;;;4947967;28;20684;-66
2023/07/18 04:17:34;;;;;;;5.13;1.83;;;;;;;;;;4966626;28;20200;-66
2023/07/18 04:20:02;;;;;;;3.50;1.97;;;;;;;;;;4948580;28;21012;-66
2023/07/18 04:22:29;;;;;;;4.73;1.70;;;;;;;;;;4969989;28;20197;-66
2023/07/18 04:25:14;;;;;;;6.00;1.80;;;;;;;;;;4955917;28;20185;-67
2023/07/18 04:27:40;;;;;;;4.27;2.00;;;;;;;;;;4962243;28;20194;-66
2023/07/18 04:30:08;;;;;;;3.67;1.73;;;;;;;;;;4968014;28;20289;-66
2023/07/18 04:32:35;;;;;;;5.20;2.00;;;;;;;;;;4970039;28;20272;-66
2023/07/18 04:35:05;;;;;;;6.03;2.10;;;;;;;;;;4964410;28;20970;-66
2023/07/18 04:37:33;;;;;;;4.90;2.80;;;;;;;;;;4957067;28;20208;-66
2023/07/18 04:39:59;;;;;;;7.97;2.77;;;;;;;;;;4953194;28;20238;-65
2023/07/18 04:42:27;;;;;;;6.40;4.07;;;;;;;;;;4949234;29;20218;-66
2023/07/18 04:44:53;;;;;;;6.83;2.97;;;;;;;;;;4965287;28;20200;-66
2023/07/18 04:47:20;;;;;;;7.00;2.60;;;;;;;;;;4960023;28;20194;-66
2023/07/18 04:49:47;;;;;;;7.00;2.00;;;;;;;;;;4962889;28;20197;-65
2023/07/18 04:52:15;;;;;;;4.27;2.00;;;;;;;;;;4965477;28;20269;-65
2023/07/18 04:54:42;;;;;;;6.47;2.73;;;;;;;;;;4968970;28;20308;-65
2023/07/18 04:57:09;;;;;;;9.90;2.93;;;;;;;;;;4969672;28;20246;-66
2023/07/18 04:59:36;;;;;;;6.77;2.30;;;;;;;;;;4970430;28;20561;-66
2023/07/18 05:02:03;;;;;;;5.33;1.93;;;;;;;;;;4952360;28;20911;-66
2023/07/18 05:04:29;;;;;;;4.53;1.80;;;;;;;;;;4970271;28;20699;-67
2023/07/18 05:06:56;;;;;;;5.43;2.33;;;;;;;;;;4970006;28;20193;-66
2023/07/18 05:09:24;;;;;;;6.07;2.40;;;;;;;;;;4969287;28;20217;-65
2023/07/18 05:11:51;;;;;;;4.17;2.20;;;;;;;;;;4952456;28;20605;-66
2023/07/18 05:14:18;;;;;;;6.53;2.00;;;;;;;;;;4969860;28;20217;-66
2023/07/18 05:16:45;;;;;;;5.77;2.20;;;;;;;;;;4967682;28;20229;-66
2023/07/18 05:19:12;;;;;;;6.07;2.20;;;;;;;;;;4970214;28;20530;-65
2023/07/18 05:21:57;;;;;;;7.77;2.30;;;;;;;;;;4970380;28;20201;-66
2023/07/18 05:24:24;;;;;;;5.67;2.43;;;;;;;;;;4968825;28;20232;-65
2023/07/18 05:27:08;;;;;;;8.70;2.17;;;;;;;;;;4969393;28;20317;-64
2023/07/18 05:29:35;;;;;;;6.77;2.17;;;;;;;;;;4968142;28;20213;-66
2023/07/18 05:32:03;;;;;;;7.63;2.00;;;;;;;;;;4950861;28;20208;-67
2023/07/18 05:34:30;;;;;;;6.80;2.23;;;;;;;;;;4968898;28;20221;-68
2023/07/18 05:36:58;;;;;;;5.37;2.23;;;;;;;;;;4970477;28;20197;-66
2023/07/18 05:39:25;;;;;;;4.60;1.93;;;;;;;;;;4977410;28;20196;-66
2023/07/18 05:41:52;;;;;;;6.77;2.20;;;;;;;;;;4969120;28;20217;-67
2023/07/18 05:44:19;;;;;;;6.57;2.80;;;;;;;;;;4951731;28;20193;-66
2023/07/18 05:47:04;;;;;;;5.23;1.97;;;;;;;;;;4963601;28;20174;-66
2023/07/18 05:49:30;;;;;;;5.27;1.97;;;;;;;;;;4963574;28;20276;-67
2023/07/18 05:51:58;;;;;;;7.70;2.33;;;;;;;;;;4950507;29;20199;-67
2023/07/18 05:54:25;;;;;;;7.17;2.27;;;;;;;;;;4957550;28;20212;-66
2023/07/18 05:56:52;;;;;;;7.10;2.70;;;;;;;;;;4952282;28;20198;-67
2023/07/18 05:59:19;;;;;;;6.90;2.80;;;;;;;;;;4968891;28;20190;-67
2023/07/18 06:01:46;;;;;;;5.77;2.07;;;;;;;;;;4968084;28;20213;-67
2023/07/18 06:04:15;;;;;;;5.93;1.83;;;;;;;;;;4952533;28;20186;-67
2023/07/18 06:06:43;;;;;;;5.47;1.93;;;;;;;;;;4969012;28;20235;-67
2023/07/18 06:09:10;;;;;;;6.27;2.37;;;;;;;;;;4968889;28;20181;-67
2023/07/18 06:11:37;;;;;;;5.83;1.90;;;;;;;;;;4970680;28;20201;-67
2023/07/18 06:14:21;;;;;;;9.80;2.10;;;;;;;;;;4970795;28;20979;-67
2023/07/18 06:16:48;;;;;;;8.13;1.63;;;;;;;;;;4970133;28;20277;-67
2023/07/18 06:19:32;;;;;;;5.30;1.93;;;;;;;;;;4970492;28;20297;-67
2023/07/18 06:21:59;;;;;;;8.43;2.20;;;;;;;;;;4971034;28;20217;-67
2023/07/18 06:24:44;;;;;;;6.90;2.30;;;;;;;;;;4955509;28;20170;-67
2023/07/18 06:27:11;;;;;;;6.83;2.00;;;;;;;;;;4970436;28;20198;-67
2023/07/18 06:29:59;;;;;;;4.83;2.40;;;;;;;;;;4970386;28;20166;-67
2023/07/18 06:32:28;;;;;;;6.40;1.67;;;;;;;;;;4970258;28;20192;-67
2023/07/18 06:34:55;;;;;;;5.00;1.77;;;;;;;;;;4970490;28;20198;-67
2023/07/18 06:37:32;;;;;;;5.07;1.83;;;;;;;;;;4970559;28;20551;-67
2023/07/18 06:39:59;;;;;;;6.20;1.80;;;;;;;;;;4970558;28;20227;-67
2023/07/18 06:42:25;;;;;;;4.87;1.83;;;;;;;;;;4969149;28;20221;-66
2023/07/18 06:44:52;;;;;;;6.30;1.70;;;;;;;;;;4952794;28;20189;-67
2023/07/18 06:47:19;;;;;;;10.03;2.10;;;;;;;;;;4953164;28;20356;-67
2023/07/18 06:49:46;;;;;;;7.07;1.80;;;;;;;;;;4952874;28;20185;-67
2023/07/18 06:52:16;;;;;;;7.57;2.50;;;;;;;;;;4970689;28;20680;-67
2023/07/18 06:54:45;;;;;;;4.43;1.57;;;;;;;;;;4952250;28;20668;-67
2023/07/18 06:57:15;;;;;;;6.57;1.93;;;;;;;;;;4969942;28;20570;-67
2023/07/18 06:59:43;;;;;;;7.57;2.20;;;;;;;;;;4969245;28;20193;-67
2023/07/18 07:02:29;;;;;;;4.90;1.90;;;;;;;;;;4942901;28;20213;-67
2023/07/18 07:04:56;;;;;;;6.37;2.03;;;;;;;;;;4969786;28;20197;-67
2023/07/18 07:07:23;;;;;;;7.20;2.20;;;;;;;;;;4970146;28;20248;-67
2023/07/18 07:09:50;;;;;;;7.63;2.77;;;;;;;;;;4970002;28;20178;-67
2023/07/18 07:12:17;;;;;;;7.83;2.23;;;;;;;;;;4968645;28;20202;-67
2023/07/18 07:15:07;;;;;;;4.77;2.60;;;;;;;;;;4952263;28;20193;-67
2023/07/18 07:17:34;;;;;;;9.40;3.07;;;;;;;;;;4969892;28;20723;-67
2023/07/18 07:20:01;;;;;;;8.47;2.40;;;;;;;;;;4969425;28;20204;-67
2023/07/18 07:22:32;;;;;;;7.87;2.37;;;;;;;;;;4969814;28;20209;-67
2023/07/18 07:24:59;;;;;;;4.90;2.40;;;;;;;;;;4969998;28;20244;-66
2023/07/18 07:27:25;;;;;;;4.87;2.30;;;;;;;;;;4952108;28;20291;-67
2023/07/18 07:29:52;;;;;;;6.57;2.50;;;;;;;;;;4969715;28;20542;-67
2023/07/18 07:32:19;;;;;;;6.13;2.20;;;;;;;;;;4969512;28;20197;-67
2023/07/18 07:34:46;;;;;;;6.77;2.07;;;;;;;;;;4952446;28;20189;-67
2023/07/18 07:37:13;;;;;;;6.47;2.07;;;;;;;;;;4969920;28;20193;-67
2023/07/18 07:39:51;;;;;;;4.77;2.30;;;;;;;;;;4969634;28;20223;-67
2023/07/18 07:42:18;;;;;;;5.73;2.40;;;;;;;;;;4969348;28;20296;-67
2023/07/18 07:44:45;;;;;;;4.47;2.10;;;;;;;;;;4969176;28;20676;-67
2023/07/18 07:47:12;;;;;;;5.13;2.20;;;;;;;;;;4969558;28;20197;-67
2023/07/18 07:49:39;;;;;;;6.17;1.93;;;;;;;;;;4969384;28;20758;-67
2023/07/18 07:52:06;;;;;;;3.77;1.60;;;;;;;;;;4969543;28;20661;-67
2023/07/18 07:54:33;;;;;;;4.87;1.77;;;;;;;;;;4973155;28;20260;-67
2023/07/18 07:57:00;;;;;;;4.57;1.60;;;;;;;;;;4972737;28;20204;-67
2023/07/18 07:59:26;;;;;;;4.83;2.27;;;;;;;;;;4972853;28;20272;-66
2023/07/18 08:01:53;;;;;;;7.97;1.63;;;;;;;;;;4955831;28;20225;-66
2023/07/18 08:04:38;;;;;;;4.67;1.63;;;;;;;;;;4972954;28;20544;-66
2023/07/18 08:07:05;;;;;;;6.43;2.77;;;;;;;;;;4973140;28;20275;-66
2023/07/18 08:09:34;;;;;;;4.40;1.77;;;;;;;;;;4973011;28;20189;-66
2023/07/18 08:12:01;;;;;;;6.97;2.73;;;;;;;;;;4955371;28;20271;-66
2023/07/18 08:14:28;;;;;;;7.37;2.93;;;;;;;;;;4972974;28;20877;-66
2023/07/18 08:16:55;;;;;;;4.27;1.60;;;;;;;;;;4973104;28;20247;-66
2023/07/18 08:19:22;;;;;;;5.57;1.93;;;;;;;;;;4955506;28;20200;-66
2023/07/18 08:21:49;;;;;;;9.17;2.20;;;;;;;;;;4972667;28;20209;-66
2023/07/18 08:24:17;;;;;;;5.50;2.30;;;;;;;;;;4972711;28;20193;-66
2023/07/18 08:26:47;;;;;;;6.43;1.80;;;;;;;;;;4972314;28;20194;-66
2023/07/18 08:29:13;;;;;;;4.23;1.73;;;;;;;;;;4972504;28;20197;-66
2023/07/18 08:31:43;;;;;;;6.93;2.03;;;;;;;;;;4972606;28;20269;-67
2023/07/18 08:34:10;;;;;;;6.40;2.00;;;;;;;;;;4972962;28;20719;-67
2023/07/18 08:36:37;;;;;;;6.30;1.90;;;;;;;;;;4939496;28;20232;-66
2023/07/18 08:39:21;;;;;;;8.57;2.10;;;;;;;;;;4971838;28;20188;-66
2023/07/18 08:41:49;;;;;;;4.83;1.90;;;;;;;;;;4972493;28;20252;-66
2023/07/18 08:44:34;;;;;;;4.30;1.53;;;;;;;;;;4972306;28;20173;-66
2023/07/18 08:47:02;;;;;;;5.63;1.90;;;;;;;;;;4955196;28;20189;-66
2023/07/18 08:49:29;;;;;;;4.53;2.07;;;;;;;;;;4972329;28;20205;-66
2023/07/18 08:51:56;;;;;;;11.83;2.80;;;;;;;;;;4972894;28;20190;-66
2023/07/18 08:54:23;;;;;;;5.30;2.33;;;;;;;;;;4971928;28;20292;-67
2023/07/18 08:57:07;;;;;;;4.80;2.00;;;;;;;;;;4972190;28;20186;-66
2023/07/18 08:59:34;;;;;;;4.63;2.03;;;;;;;;;;4958425;28;20214;-66
2023/07/18 09:02:18;;;;;;;4.83;2.00;;;;;;;;;;4922470;29;20213;-66
2023/07/18 09:04:46;;;;;;;5.30;1.97;;;;;;;;;;4952004;28;20196;-67
2023/07/18 09:07:13;;;;;;;8.13;2.07;;;;;;;;;;4953139;29;20206;-66
2023/07/18 09:09:44;;;;;;;6.47;2.37;;;;;;;;;;4952794;29;20674;-66
2023/07/18 09:12:11;;;;;;;6.60;2.10;;;;;;;;;;4952578;29;20201;-66
2023/07/18 09:14:38;;;;;;;6.47;1.63;;;;;;;;;;4952500;29;20221;-66
2023/07/18 09:17:07;;;;;;;4.57;1.50;;;;;;;;;;4952278;29;20190;-67
2023/07/18 09:19:37;;;;;;;5.90;1.90;;;;;;;;;;4952480;29;20194;-66
2023/07/18 09:22:21;;;;;;;4.73;1.80;;;;;;;;;;4952561;29;20958;-67
2023/07/18 09:24:48;;;;;;;5.47;2.00;;;;;;;;;;4952698;29;20601;-66
2023/07/18 09:27:32;;;;;;;4.77;1.53;;;;;;;;;;4952174;29;20193;-66
2023/07/18 09:29:59;;;;;;;3.43;1.53;;;;;;;;;;4935375;29;20202;-66
2023/07/18 09:32:43;;;;;;;4.77;1.50;;;;;;;;;;4952254;29;20178;-66
2023/07/18 09:35:11;;;;;;;5.27;1.63;;;;;;;;;;4952393;29;20190;-66
2023/07/18 09:37:55;;;;;;;3.97;1.70;;;;;;;;;;4952620;29;20549;-66
2023/07/18 09:40:22;;;;;;;4.77;1.50;;;;;;;;;;4934669;29;20783;-66
2023/07/18 09:43:06;;;;;;;4.63;1.67;;;;;;;;;;4952347;29;20325;-66
2023/07/18 09:45:33;;;;;;;3.47;1.57;;;;;;;;;;4935120;29;20245;-66
2023/07/18 09:48:17;;;;;;;3.67;1.50;;;;;;;;;;4952296;29;20229;-66
2023/07/18 09:50:44;;;;;;;3.13;1.47;;;;;;;;;;4934554;29;20190;-66
2023/07/18 09:53:11;;;;;;;4.37;1.27;;;;;;;;;;4935019;29;20684;-66
2023/07/18 09:55:38;;;;;;;5.03;1.30;;;;;;;;;;4951601;29;20206;-66
2023/07/18 09:58:06;;;;;;;3.30;1.43;;;;;;;;;;4953550;28;20256;-66
2023/07/18 10:00:35;;;;;;;4.53;1.30;;;;;;;;;;4971009;28;20249;-66
2023/07/18 10:03:02;;;;;;;4.13;1.33;;;;;;;;;;4954102;28;20224;-66
2023/07/18 10:05:29;;;;;;;4.63;1.70;;;;;;;;;;4953908;28;20219;-66
2023/07/18 10:08:13;;;;;;;2.70;1.37;;;;;;;;;;4956461;28;20649;-66
2023/07/18 10:10:40;;;;;;;3.10;1.40;;;;;;;;;;4953416;28;21019;-66
2023/07/18 10:13:07;;;;;;;4.13;1.53;;;;;;;;;;4954237;28;20297;-67
2023/07/18 10:15:53;;;;;;;4.57;1.33;;;;;;;;;;4970557;28;20217;-67
2023/07/18 10:18:22;;;;;;;3.97;1.40;;;;;;;;;;4970178;28;20255;-66
2023/07/18 10:21:01;;;;;;;4.80;1.50;;;;;;;;;;4970565;28;20364;-66
2023/07/18 10:23:43;;;;;;;3.43;1.33;;;;;;;;;;4970656;28;20321;-66
2023/07/18 10:26:10;;;;;;;4.23;1.10;;;;;;;;;;4970473;28;20185;-66
2023/07/18 10:28:46;;;;;;;2.90;1.00;;;;;;;;;;4953652;28;20197;-66
2023/07/18 10:31:25;;;;;;;4.57;1.50;;;;;;;;;;4970854;28;20197;-67
2023/07/18 10:34:11;;;;;;;2.27;1.20;;;;;;;;;;4970563;28;20613;-68
2023/07/18 10:36:38;;;;;;;2.03;1.20;;;;;;;;;;4970264;28;20522;-68
2023/07/18 10:39:54;;;;;;;2.33;1.23;;;;;;;;;;4969888;28;20176;-66
2023/07/18 10:42:24;;;;;;;4.47;1.20;;;;;;;;;;4917247;28;20236;-67
2023/07/18 10:44:54;;;;;;;4.33;1.30;;;;;;;;;;4935510;28;20280;-66
2023/07/18 10:47:21;;;;;;;3.00;1.27;;;;;;;;;;4969794;28;20356;-66
2023/07/18 10:49:48;;;;;;;4.90;1.33;;;;;;;;;;4970703;28;20222;-66
2023/07/18 10:52:34;;;;;;;4.30;1.30;;;;;;;;;;4969942;28;20208;-67
2023/07/18 10:55:06;;;;;;;2.87;1.30;;;;;;;;;;4970212;28;20217;-67
2023/07/18 10:57:34;;;;;;;3.37;1.10;;;;;;;;;;4970188;28;20204;-66
2023/07/18 11:00:02;;;;;;;4.57;1.40;;;;;;;;;;4954350;28;20190;-67
2023/07/18 11:02:34;;;;;;;2.07;1.00;;;;;;;;;;4952846;28;20284;-66
2023/07/18 11:05:24;;;;;;;2.60;1.20;;;;;;;;;;4968474;28;20982;-67
2023/07/18 11:07:51;;;;;;;3.00;1.13;;;;;;;;;;4968271;28;20194;-66
2023/07/18 11:10:19;;;;;;;3.93;1.10;;;;;;;;;;4969681;28;20237;-67
2023/07/18 11:12:47;;;;;;;3.97;1.27;;;;;;;;;;4943983;28;20264;-66
2023/07/18 11:15:14;;;;;;;3.73;1.40;;;;;;;;;;4962538;28;20197;-66
2023/07/18 11:17:42;;;;;;;2.73;1.47;;;;;;;;;;4967274;28;20287;-67
2023/07/18 11:20:10;;;;;;;5.13;1.50;;;;;;;;;;4950606;28;20204;-67
2023/07/18 11:22:37;;;;;;;4.23;1.20;;;;;;;;;;4950529;28;20221;-66
2023/07/18 11:25:04;;;;;;;3.23;1.37;;;;;;;;;;4967799;28;20184;-67
2023/07/18 11:27:31;;;;;;;2.50;1.03;;;;;;;;;;4950314;28;20217;-67
2023/07/18 11:29:59;;;;;;;2.60;1.20;;;;;;;;;;4967770;28;20197;-67
2023/07/18 11:32:29;;;;;;;3.67;1.20;;;;;;;;;;4967389;28;20192;-67
2023/07/18 11:34:59;;;;;;;4.13;1.10;;;;;;;;;;4968027;28;20205;-68
2023/07/18 11:37:26;;;;;;;2.90;1.40;;;;;;;;;;4968491;28;20198;-67
2023/07/18 11:39:57;;;;;;;6.90;1.67;;;;;;;;;;4951265;28;20221;-67
2023/07/18 11:42:25;;;;;;;2.67;1.30;;;;;;;;;;4967187;28;20267;-67
2023/07/18 11:44:52;;;;;;;3.60;1.40;;;;;;;;;;4967858;28;20189;-69
2023/07/18 11:47:19;;;;;;;4.77;1.20;;;;;;;;;;4950747;28;20891;-68
2023/07/18 11:49:46;;;;;;;4.90;1.23;;;;;;;;;;4967453;28;20276;-68
2023/07/18 11:52:12;;;;;;;5.30;1.40;;;;;;;;;;4965886;28;20277;-68
2023/07/18 11:54:41;;;;;;;1.73;1.00;;;;;;;;;;4967238;28;20988;-66
2023/07/18 11:57:08;;;;;;;2.90;1.20;;;;;;;;;;4976051;28;20236;-67
2023/07/18 11:59:34;;;;;;;3.77;1.43;;;;;;;;;;4973645;28;20699;-66
2023/07/18 12:02:02;;;;;;;3.57;1.00;;;;;;;;;;4967491;28;20201;-67
2023/07/18 12:04:29;;;;;;;3.57;1.20;;;;;;;;;;4967740;28;20273;-66
2023/07/18 12:07:14;;;;;;;3.67;1.30;;;;;;;;;;4953076;28;20185;-67
2023/07/18 12:09:41;;;;;;;4.97;1.30;;;;;;;;;;4966680;28;20248;-67
2023/07/18 12:12:08;;;;;;;2.83;1.10;;;;;;;;;;4966825;28;20699;-67
2023/07/18 12:14:35;;;;;;;4.10;1.33;;;;;;;;;;4941931;28;20224;-67
2023/07/18 12:17:01;;;;;;;2.63;1.20;;;;;;;;;;4967243;28;20197;-66
2023/07/18 12:19:28;;;;;;;4.87;1.30;;;;;;;;;;4950542;28;20189;-66
2023/07/18 12:21:55;;;;;;;2.43;1.17;;;;;;;;;;4967510;28;20205;-66
2023/07/18 12:24:22;;;;;;;2.73;1.17;;;;;;;;;;4966409;28;20681;-67
2023/07/18 12:26:49;;;;;;;3.97;1.13;;;;;;;;;;4967448;28;20189;-68
2023/07/18 12:29:16;;;;;;;2.10;1.20;;;;;;;;;;4967238;28;20194;-69
2023/07/18 12:31:51;;;;;;;3.57;1.20;;;;;;;;;;4949870;28;20190;-68
2023/07/18 12:34:19;;;;;;;1.97;1.07;;;;;;;;;;4967630;28;20197;-66
2023/07/18 12:36:47;;;;;;;3.37;1.40;;;;;;;;;;4967344;28;20198;-66
2023/07/18 12:39:15;;;;;;;5.97;1.80;;;;;;;;;;4967377;28;20522;-67
2023/07/18 12:41:42;;;;;;;3.63;1.80;;;;;;;;;;4971195;28;20260;-67
2023/07/18 12:44:14;;;;;;;2.27;1.07;;;;;;;;;;4969431;28;20225;-67
2023/07/18 12:46:40;;;;;;;3.43;2.07;;;;;;;;;;4971064;28;20200;-67
2023/07/18 12:49:09;;;;;;;5.03;2.03;;;;;;;;;;4953751;28;20197;-67
2023/07/18 12:51:36;;;;;;;3.10;1.37;;;;;;;;;;4971323;28;20226;-67
2023/07/18 12:54:03;;;;;;;3.97;1.67;;;;;;;;;;4970045;28;20194;-67
2023/07/18 12:56:30;;;;;;;3.70;1.33;;;;;;;;;;4970583;28;20257;-67
2023/07/18 12:58:57;;;;;;;3.90;1.10;;;;;;;;;;4970361;28;20193;-67
2023/07/18 13:01:24;;;;;;;2.73;1.00;;;;;;;;;;4953443;28;20193;-67
2023/07/18 13:03:52;;;;;;;2.63;1.07;;;;;;;;;;4953149;28;20704;-68
2023/07/18 13:06:19;;;;;;;2.83;1.10;;;;;;;;;;4970425;28;20185;-69
2023/07/18 13:08:46;;;;;;;2.93;0.90;;;;;;;;;;4937199;28;20197;-68
2023/07/18 13:11:13;;;;;;;3.77;1.10;;;;;;;;;;4952716;28;20661;-69
2023/07/18 13:13:41;;;;;;;7.73;1.53;;;;;;;;;;4938462;28;20288;-68
2023/07/18 13:16:08;;;;;;;4.40;1.10;;;;;;;;;;4952780;28;20248;-67
2023/07/18 13:18:39;;;;;;;2.20;0.80;;;;;;;;;;4970244;28;20182;-68
2023/07/18 13:21:06;;;;;;;4.30;1.17;;;;;;;;;;4950745;29;20190;-68
2023/07/18 13:23:33;;;;;;;3.37;0.97;;;;;;;;;;4949795;28;20297;-68
2023/07/18 13:26:00;;;;;;;3.97;1.03;;;;;;;;;;4971936;28;20205;-68
2023/07/18 13:28:27;;;;;;;4.87;1.67;;;;;;;;;;4954287;28;20209;-68
2023/07/18 13:30:55;;;;;;;4.77;1.13;;;;;;;;;;4970485;28;20197;-68
2023/07/18 13:33:22;;;;;;;1.67;0.90;;;;;;;;;;4953190;28;20186;-68
2023/07/18 13:35:49;;;;;;;7.67;1.00;;;;;;;;;;4971551;28;20194;-68
2023/07/18 13:38:16;;;;;;;3.83;1.10;;;;;;;;;;4971202;28;20213;-67
2023/07/18 13:40:43;;;;;;;5.23;1.60;;;;;;;;;;4970718;28;20251;-68
2023/07/18 13:43:12;;;;;;;4.10;1.10;;;;;;;;;;4971306;28;20210;-68
2023/07/18 13:45:39;;;;;;;2.93;1.80;;;;;;;;;;4954220;28;21058;-68
2023/07/18 13:48:07;;;;;;;3.20;1.40;;;;;;;;;;4970903;28;20241;-68
2023/07/18 13:50:35;;;;;;;5.97;1.87;;;;;;;;;;4970908;28;20487;-68
2023/07/18 13:53:04;;;;;;;2.67;1.37;;;;;;;;;;4953993;28;20166;-68
2023/07/18 13:55:31;;;;;;;3.43;1.20;;;;;;;;;;4971150;28;20736;-68
2023/07/18 13:57:58;;;;;;;2.60;1.00;;;;;;;;;;4971139;28;20193;-68
2023/07/18 14:00:26;;;;;;;2.47;1.30;;;;;;;;;;4970526;28;20197;-68
2023/07/18 14:02:53;;;;;;;4.67;0.90;;;;;;;;;;4956762;28;20221;-69
2023/07/18 14:05:20;;;;;;;3.90;1.20;;;;;;;;;;4951811;28;20188;-69
2023/07/18 14:07:48;;;;;;;2.30;1.07;;;;;;;;;;4968324;28;20207;-69
2023/07/18 14:10:16;;;;;;;3.27;1.20;;;;;;;;;;4968850;28;20200;-68
2023/07/18 14:12:45;;;;;;;1.23;0.83;;;;;;;;;;4968276;28;20313;-68
2023/07/18 14:15:12;;;;;;;2.60;0.80;;;;;;;;;;4967165;28;20193;-68
2023/07/18 14:17:40;;;;;;;1.13;0.87;;;;;;;;;;4951014;28;20312;-69
2023/07/18 14:20:07;;;;;;;3.33;1.00;;;;;;;;;;4967177;28;20197;-69
2023/07/18 14:22:34;;;;;;;0.90;0.70;;;;;;;;;;4951218;28;20201;-68
2023/07/18 14:25:02;;;;;;;1.90;0.80;;;;;;;;;;4968166;28;20916;-69
2023/07/18 14:27:29;;;;;;;2.47;0.90;;;;;;;;;;4968630;28;20221;-69
2023/07/18 14:29:56;;;;;;;1.93;0.80;;;;;;;;;;4968653;28;20214;-70
2023/07/18 14:32:23;;;;;;;3.87;1.47;;;;;;;;;;4968233;28;20243;-69
2023/07/18 14:34:50;;;;;;;1.97;0.90;;;;;;;;;;4950707;28;20664;-69
2023/07/18 14:37:18;;;;;;;2.00;0.93;;;;;;;;;;4968375;28;20284;-68
2023/07/18 14:39:47;;;;;;;1.50;1.30;;;;;;;;;;4967628;28;20236;-68
2023/07/18 14:42:14;;;;;;;2.80;1.30;;;;;;;;;;4950872;28;20268;-67
2023/07/18 14:44:41;;;;;;;4.00;1.30;;;;;;;;;;4950558;28;21102;-67
2023/07/18 14:47:09;;;;;;;2.00;1.00;;;;;;;;;;4968404;28;20248;-67
2023/07/18 14:49:37;;;;;;;3.40;1.50;;;;;;;;;;4968378;28;20560;-67
2023/07/18 14:52:04;;;;;;;3.47;1.20;;;;;;;;;;4968109;28;20217;-67
2023/07/18 14:54:31;;;;;;;3.53;2.10;;;;;;;;;;4968924;28;20200;-66
2023/07/18 14:56:58;;;;;;;5.43;1.70;;;;;;;;;;4967775;28;20189;-67
2023/07/18 14:59:28;;;;;;;3.57;1.20;;;;;;;;;;4966330;28;20186;-68
2023/07/18 15:01:55;;;;;;;3.10;1.13;;;;;;;;;;4967487;28;20719;-68
2023/07/18 15:04:22;;;;;;;2.43;0.90;;;;;;;;;;4967557;28;20206;-67
2023/07/18 15:06:51;;;;;;;2.50;1.30;;;;;;;;;;4968282;28;20177;-69
2023/07/18 15:09:20;;;;;;;5.57;1.23;;;;;;;;;;4950285;28;20830;-70
2023/07/18 15:11:47;;;;;;;1.77;0.87;;;;;;;;;;4968475;28;20283;-70
2023/07/18 15:14:14;;;;;;;2.20;1.00;;;;;;;;;;4942603;28;20213;-70
2023/07/18 15:16:59;;;;;;;3.10;0.90;;;;;;;;;;4940145;28;20244;-71
2023/07/18 15:19:27;;;;;;;1.60;0.90;;;;;;;;;;4950897;28;20556;-70
2023/07/18 15:21:55;;;;;;;4.30;0.90;;;;;;;;;;4950841;28;20185;-69
2023/07/18 15:24:21;;;;;;;2.70;1.00;;;;;;;;;;4967088;28;20221;-70
2023/07/18 15:26:49;;;;;;;3.00;0.97;;;;;;;;;;4950309;28;20505;-70
2023/07/18 15:29:34;;;;;;;1.87;1.10;;;;;;;;;;4947810;29;20185;-69
2023/07/18 15:32:01;;;;;;;2.50;1.30;;;;;;;;;;4948691;28;20290;-71